sensor_id;sensor_type;location;lat;lon;timestamp;temperature;humidity
5796;DHT22;2924;51.458;7.046;2024-02-04T00:00:26;9.40;99.90
5796;DHT22;2924;51.458;7.046;2024-02-04T00:02:52;9.40;99.90
5796;DHT22;2924;51.458;7.046;2024-02-04T00:05:17;9.40;99.90
5796;DHT22;2924;51.458;7.046;2024-02-04T00:07:44;9.30;99.90
5796;DHT22;2924;51.458;7.046;2024-02-04T00:10:10;9.30;99.90
5796;DHT22;2924;51.458;7.046;2024-02-04T00:12:35;9.30;99.90
5796;DHT22;2924;51.458;7.046;2024-02-04T00:15:01;9.30;99.90
5796;DHT22;2924;51.458;7.046;2024-02-04T00:17:26;9.30;99.90
5796;DHT22;2924;51.458;7.046;2024-02-04T00:19:56;9.20;99.90
5796;DHT22;2924;51.458;7.046;2024-02-04T00:22:22;9.20;99.90
5796;DHT22;2924;51.458;7.046;2024-02-04T00:24:47;9.20;99.90
5796;DHT22;2924;51.458;7.046;2024-02-04T00:27:13;9.20;99.90
5796;DHT22;2924;51.458;7.046;2024-02-04T00:29:39;9.10;99.90
5796;DHT22;2924;51.458;7.046;2024-02-04T00:32:04;9.10;99.90
5796;DHT22;2924;51.458;7.046;2024-02-04T00:34:30;9.20;99.90
5796;DHT22;2924;51.458;7.046;2024-02-04T00:36:55;9.20;99.90
5796;DHT22;2924;51.458;7.046;2024-02-04T00:39:21;9.20;99.90
5796;DHT22;2924;51.458;7.046;2024-02-04T00:41:47;9.20;99.90
5796;DHT22;2924;51.458;7.046;2024-02-04T00:44:12;9.10;99.90
5796;DHT22;2924;51.458;7.046;2024-02-04T00:46:38;9.20;99.90
5796;DHT22;2924;51.458;7.046;2024-02-04T00:49:03;9.10;99.90
5796;DHT22;2924;51.458;7.046;2024-02-04T00:51:29;9.20;99.90
5796;DHT22;2924;51.458;7.046;2024-02-04T00:53:54;9.20;99.90
5796;DHT22;2924;51.458;7.046;2024-02-04T00:56:20;9.10;99.90
5796;DHT22;2924;51.458;7.046;2024-02-04T00:58:46;9.10;99.90
5796;DHT22;2924;51.458;7.046;2024-02-04T01:01:11;9.20;99.90
5796;DHT22;2924;51.458;7.046;2024-02-04T01:03:37;9.20;99.90
5796;DHT22;2924;51.458;7.046;2024-02-04T01:06:03;9.20;99.90
5796;DHT22;2924;51.458;7.046;2024-02-04T01:08:29;9.20;99.90
5796;DHT22;2924;51.458;7.046;2024-02-04T01:10:54;9.20;99.90
5796;DHT22;2924;51.458;7.046;2024-02-04T01:13:20;9.10;99.90
5796;DHT22;2924;51.458;7.046;2024-02-04T01:15:45;9.10;99.90
5796;DHT22;2924;51.458;7.046;2024-02-04T01:18:11;9.10;99.90
5796;DHT22;2924;51.458;7.046;2024-02-04T01:20:37;9.10;99.90
5796;DHT22;2924;51.458;7.046;2024-02-04T01:23:02;9.10;99.90
5796;DHT22;2924;51.458;7.046;2024-02-04T01:25:28;9.10;99.90
5796;DHT22;2924;51.458;7.046;2024-02-04T01:27:53;9.10;99.90
5796;DHT22;2924;51.458;7.046;2024-02-04T01:30:19;9.20;99.90
5796;DHT22;2924;51.458;7.046;2024-02-04T01:32:45;9.20;99.90
5796;DHT22;2924;51.458;7.046;2024-02-04T01:35:11;9.10;99.90
5796;DHT22;2924;51.458;7.046;2024-02-04T01:37:37;9.20;99.90
5796;DHT22;2924;51.458;7.046;2024-02-04T01:40:03;9.20;99.90
5796;DHT22;2924;51.458;7.046;2024-02-04T01:42:31;9.20;99.90
5796;DHT22;2924;51.458;7.046;2024-02-04T01:44:56;9.20;99.90
5796;DHT22;2924;51.458;7.046;2024-02-04T01:47:22;9.20;99.90
5796;DHT22;2924;51.458;7.046;2024-02-04T01:49:48;9.20;99.90
5796;DHT22;2924;51.458;7.046;2024-02-04T01:52:14;9.20;99.90
5796;DHT22;2924;51.458;7.046;2024-02-04T01:54:42;9.20;99.90
5796;DHT22;2924;51.458;7.046;2024-02-04T01:57:10;9.20;99.90
5796;DHT22;2924;51.458;7.046;2024-02-04T01:59:41;9.30;99.90
5796;DHT22;2924;51.458;7.046;2024-02-04T02:02:06;9.30;99.90
5796;DHT22;2924;51.458;7.046;2024-02-04T02:04:32;9.20;99.90
5796;DHT22;2924;51.458;7.046;2024-02-04T02:06:58;9.30;99.90
5796;DHT22;2924;51.458;7.046;2024-02-04T02:09:28;9.40;99.90
5796;DHT22;2924;51.458;7.046;2024-02-04T02:12:03;9.30;99.90
5796;DHT22;2924;51.458;7.046;2024-02-04T02:14:36;9.40;99.90
5796;DHT22;2924;51.458;7.046;2024-02-04T02:17:07;9.30;99.90
5796;DHT22;2924;51.458;7.046;2024-02-04T02:19:54;9.40;99.90
5796;DHT22;2924;51.458;7.046;2024-02-04T02:22:50;9.40;99.90
5796;DHT22;2924;51.458;7.046;2024-02-04T02:25:18;9.30;99.90
5796;DHT22;2924;51.458;7.046;2024-02-04T02:27:49;9.30;99.90
5796;DHT22;2924;51.458;7.046;2024-02-04T02:30:15;9.40;99.90
5796;DHT22;2924;51.458;7.046;2024-02-04T02:32:42;9.40;99.90
5796;DHT22;2924;51.458;7.046;2024-02-04T02:35:08;9.40;99.90
5796;DHT22;2924;51.458;7.046;2024-02-04T02:38:05;9.40;99.90
5796;DHT22;2924;51.458;7.046;2024-02-04T02:40:45;9.40;99.90
5796;DHT22;2924;51.458;7.046;2024-02-04T02:43:11;9.40;99.90
5796;DHT22;2924;51.458;7.046;2024-02-04T02:45:41;9.40;99.90
5796;DHT22;2924;51.458;7.046;2024-02-04T02:48:07;9.40;99.90
5796;DHT22;2924;51.458;7.046;2024-02-04T02:50:35;9.40;99.90
5796;DHT22;2924;51.458;7.046;2024-02-04T02:53:00;9.40;99.90
5796;DHT22;2924;51.458;7.046;2024-02-04T02:55:26;9.40;99.90
5796;DHT22;2924;51.458;7.046;2024-02-04T02:57:51;9.40;99.90
5796;DHT22;2924;51.458;7.046;2024-02-04T03:00:17;9.40;99.90
5796;DHT22;2924;51.458;7.046;2024-02-04T03:02:43;9.40;99.90
5796;DHT22;2924;51.458;7.046;2024-02-04T03:05:09;9.40;99.90
5796;DHT22;2924;51.458;7.046;2024-02-04T03:07:35;9.40;99.90
5796;DHT22;2924;51.458;7.046;2024-02-04T03:10:00;9.40;99.90
5796;DHT22;2924;51.458;7.046;2024-02-04T03:12:26;9.40;99.90
5796;DHT22;2924;51.458;7.046;2024-02-04T03:14:51;9.40;99.90
5796;DHT22;2924;51.458;7.046;2024-02-04T03:17:17;9.40;99.90
5796;DHT22;2924;51.458;7.046;2024-02-04T03:19:47;9.40;99.90
5796;DHT22;2924;51.458;7.046;2024-02-04T03:22:13;9.40;99.90
5796;DHT22;2924;51.458;7.046;2024-02-04T03:24:39;9.40;99.90
5796;DHT22;2924;51.458;7.046;2024-02-04T03:27:04;9.40;99.90
5796;DHT22;2924;51.458;7.046;2024-02-04T03:29:30;9.50;99.90
5796;DHT22;2924;51.458;7.046;2024-02-04T03:31:56;9.40;99.90
5796;DHT22;2924;51.458;7.046;2024-02-04T03:34:21;9.40;99.90
5796;DHT22;2924;51.458;7.046;2024-02-04T03:36:47;9.40;99.90
5796;DHT22;2924;51.458;7.046;2024-02-04T03:39:12;9.40;99.90
5796;DHT22;2924;51.458;7.046;2024-02-04T03:41:38;9.50;99.90
5796;DHT22;2924;51.458;7.046;2024-02-04T03:44:04;9.40;99.90
5796;DHT22;2924;51.458;7.046;2024-02-04T03:46:29;9.40;99.90
5796;DHT22;2924;51.458;7.046;2024-02-04T03:48:55;9.40;99.90
5796;DHT22;2924;51.458;7.046;2024-02-04T03:51:20;9.40;99.90
5796;DHT22;2924;51.458;7.046;2024-02-04T03:53:47;9.40;99.90
5796;DHT22;2924;51.458;7.046;2024-02-04T03:56:13;9.40;99.90
5796;DHT22;2924;51.458;7.046;2024-02-04T03:58:39;9.40;99.90
5796;DHT22;2924;51.458;7.046;2024-02-04T04:01:05;9.40;99.90
5796;DHT22;2924;51.458;7.046;2024-02-04T04:03:30;9.40;99.90
5796;DHT22;2924;51.458;7.046;2024-02-04T04:05:56;9.40;99.90
5796;DHT22;2924;51.458;7.046;2024-02-04T04:08:21;9.40;99.90
5796;DHT22;2924;51.458;7.046;2024-02-04T04:10:47;9.40;99.90
5796;DHT22;2924;51.458;7.046;2024-02-04T04:13:13;9.40;99.90
5796;DHT22;2924;51.458;7.046;2024-02-04T04:15:39;9.40;99.90
5796;DHT22;2924;51.458;7.046;2024-02-04T04:18:05;9.50;99.90
5796;DHT22;2924;51.458;7.046;2024-02-04T04:20:31;9.40;99.90
5796;DHT22;2924;51.458;7.046;2024-02-04T04:22:56;9.50;99.90
5796;DHT22;2924;51.458;7.046;2024-02-04T04:25:22;9.40;99.90
5796;DHT22;2924;51.458;7.046;2024-02-04T04:27:47;9.50;99.90
5796;DHT22;2924;51.458;7.046;2024-02-04T04:30:13;9.40;99.90
5796;DHT22;2924;51.458;7.046;2024-02-04T04:32:42;9.50;99.90
5796;DHT22;2924;51.458;7.046;2024-02-04T04:35:07;9.50;99.90
5796;DHT22;2924;51.458;7.046;2024-02-04T04:37:33;9.50;99.90
5796;DHT22;2924;51.458;7.046;2024-02-04T04:39:58;9.50;99.90
5796;DHT22;2924;51.458;7.046;2024-02-04T04:42:24;9.50;99.90
5796;DHT22;2924;51.458;7.046;2024-02-04T04:44:49;9.40;99.90
5796;DHT22;2924;51.458;7.046;2024-02-04T04:47:15;9.40;99.90
5796;DHT22;2924;51.458;7.046;2024-02-04T04:49:41;9.50;99.90
5796;DHT22;2924;51.458;7.046;2024-02-04T04:52:07;9.40;99.90
5796;DHT22;2924;51.458;7.046;2024-02-04T04:54:32;9.40;99.90
5796;DHT22;2924;51.458;7.046;2024-02-04T04:56:58;9.40;99.90
5796;DHT22;2924;51.458;7.046;2024-02-04T04:59:23;9.40;99.90
5796;DHT22;2924;51.458;7.046;2024-02-04T05:01:49;9.40;99.90
5796;DHT22;2924;51.458;7.046;2024-02-04T05:04:16;9.40;99.90
5796;DHT22;2924;51.458;7.046;2024-02-04T05:06:41;9.40;99.90
5796;DHT22;2924;51.458;7.046;2024-02-04T05:09:07;9.40;99.90
5796;DHT22;2924;51.458;7.046;2024-02-04T05:11:33;9.40;99.90
5796;DHT22;2924;51.458;7.046;2024-02-04T05:13:58;9.40;99.90
5796;DHT22;2924;51.458;7.046;2024-02-04T05:16:24;9.30;99.90
5796;DHT22;2924;51.458;7.046;2024-02-04T05:18:50;9.30;99.90
5796;DHT22;2924;51.458;7.046;2024-02-04T05:21:15;9.40;99.90
5796;DHT22;2924;51.458;7.046;2024-02-04T05:23:41;9.30;99.90
5796;DHT22;2924;51.458;7.046;2024-02-04T05:26:07;9.30;99.90
5796;DHT22;2924;51.458;7.046;2024-02-04T05:28:32;9.40;99.90
5796;DHT22;2924;51.458;7.046;2024-02-04T05:30:58;9.30;99.90
5796;DHT22;2924;51.458;7.046;2024-02-04T05:33:24;9.30;99.90
5796;DHT22;2924;51.458;7.046;2024-02-04T05:35:49;9.30;99.90
5796;DHT22;2924;51.458;7.046;2024-02-04T05:38:16;9.30;99.90
5796;DHT22;2924;51.458;7.046;2024-02-04T05:40:42;9.30;99.90
5796;DHT22;2924;51.458;7.046;2024-02-04T05:43:08;9.30;99.90
5796;DHT22;2924;51.458;7.046;2024-02-04T05:45:37;9.30;99.90
5796;DHT22;2924;51.458;7.046;2024-02-04T05:48:04;9.30;99.90
5796;DHT22;2924;51.458;7.046;2024-02-04T05:50:30;9.30;99.90
5796;DHT22;2924;51.458;7.046;2024-02-04T05:52:55;9.30;99.90
5796;DHT22;2924;51.458;7.046;2024-02-04T05:55:21;9.30;99.90
5796;DHT22;2924;51.458;7.046;2024-02-04T05:57:46;9.30;99.90
5796;DHT22;2924;51.458;7.046;2024-02-04T06:00:12;9.30;99.90
5796;DHT22;2924;51.458;7.046;2024-02-04T06:02:38;9.30;99.90
5796;DHT22;2924;51.458;7.046;2024-02-04T06:05:04;9.30;99.90
5796;DHT22;2924;51.458;7.046;2024-02-04T06:07:29;9.30;99.90
5796;DHT22;2924;51.458;7.046;2024-02-04T06:09:55;9.30;99.90
5796;DHT22;2924;51.458;7.046;2024-02-04T06:12:21;9.30;99.90
5796;DHT22;2924;51.458;7.046;2024-02-04T06:14:47;9.30;99.90
5796;DHT22;2924;51.458;7.046;2024-02-04T06:17:13;9.30;99.90
5796;DHT22;2924;51.458;7.046;2024-02-04T06:19:38;9.40;99.90
5796;DHT22;2924;51.458;7.046;2024-02-04T06:22:04;9.30;99.90
5796;DHT22;2924;51.458;7.046;2024-02-04T06:24:30;9.40;99.90
5796;DHT22;2924;51.458;7.046;2024-02-04T06:26:56;9.30;99.90
5796;DHT22;2924;51.458;7.046;2024-02-04T06:29:21;9.40;99.90
5796;DHT22;2924;51.458;7.046;2024-02-04T06:31:47;9.40;99.90
5796;DHT22;2924;51.458;7.046;2024-02-04T06:34:12;9.40;99.90
5796;DHT22;2924;51.458;7.046;2024-02-04T06:36:41;9.40;99.90
5796;DHT22;2924;51.458;7.046;2024-02-04T06:39:07;9.40;99.90
5796;DHT22;2924;51.458;7.046;2024-02-04T06:41:34;9.40;99.90
5796;DHT22;2924;51.458;7.046;2024-02-04T06:44:00;9.40;99.90
5796;DHT22;2924;51.458;7.046;2024-02-04T06:46:28;9.40;99.90
5796;DHT22;2924;51.458;7.046;2024-02-04T06:48:54;9.30;99.90
5796;DHT22;2924;51.458;7.046;2024-02-04T06:51:20;9.30;99.90
5796;DHT22;2924;51.458;7.046;2024-02-04T06:53:46;9.30;99.90
5796;DHT22;2924;51.458;7.046;2024-02-04T06:56:11;9.30;99.90
5796;DHT22;2924;51.458;7.046;2024-02-04T06:58:38;9.40;99.90
5796;DHT22;2924;51.458;7.046;2024-02-04T07:01:03;9.40;99.90
5796;DHT22;2924;51.458;7.046;2024-02-04T07:03:30;9.40;99.90
5796;DHT22;2924;51.458;7.046;2024-02-04T07:05:56;9.30;99.90
5796;DHT22;2924;51.458;7.046;2024-02-04T07:08:21;9.30;99.90
5796;DHT22;2924;51.458;7.046;2024-02-04T07:10:47;9.30;99.90
5796;DHT22;2924;51.458;7.046;2024-02-04T07:13:13;9.30;99.90
5796;DHT22;2924;51.458;7.046;2024-02-04T07:15:38;9.30;99.90
5796;DHT22;2924;51.458;7.046;2024-02-04T07:18:04;9.30;99.90
5796;DHT22;2924;51.458;7.046;2024-02-04T07:20:30;9.40;99.90
5796;DHT22;2924;51.458;7.046;2024-02-04T07:22:55;9.40;99.90
5796;DHT22;2924;51.458;7.046;2024-02-04T07:25:21;9.40;99.90
5796;DHT22;2924;51.458;7.046;2024-02-04T07:27:48;9.40;99.90
5796;DHT22;2924;51.458;7.046;2024-02-04T07:30:14;9.40;99.90
5796;DHT22;2924;51.458;7.046;2024-02-04T07:32:39;9.30;99.90
5796;DHT22;2924;51.458;7.046;2024-02-04T07:35:05;9.40;99.90
5796;DHT22;2924;51.458;7.046;2024-02-04T07:37:31;9.40;99.90
5796;DHT22;2924;51.458;7.046;2024-02-04T07:39:57;9.40;99.90
5796;DHT22;2924;51.458;7.046;2024-02-04T07:42:22;9.40;99.90
5796;DHT22;2924;51.458;7.046;2024-02-04T07:44:48;9.40;99.90
5796;DHT22;2924;51.458;7.046;2024-02-04T07:47:14;9.40;99.90
5796;DHT22;2924;51.458;7.046;2024-02-04T07:49:40;9.40;99.90
5796;DHT22;2924;51.458;7.046;2024-02-04T07:52:06;9.40;99.90
5796;DHT22;2924;51.458;7.046;2024-02-04T07:54:31;9.40;99.90
5796;DHT22;2924;51.458;7.046;2024-02-04T07:56:57;9.40;99.90
5796;DHT22;2924;51.458;7.046;2024-02-04T07:59:23;9.40;99.90
5796;DHT22;2924;51.458;7.046;2024-02-04T08:01:48;9.50;99.90
5796;DHT22;2924;51.458;7.046;2024-02-04T08:04:14;9.50;99.90
5796;DHT22;2924;51.458;7.046;2024-02-04T08:06:40;9.50;99.90
5796;DHT22;2924;51.458;7.046;2024-02-04T08:09:06;9.50;99.90
5796;DHT22;2924;51.458;7.046;2024-02-04T08:11:32;9.50;99.90
5796;DHT22;2924;51.458;7.046;2024-02-04T08:13:57;9.50;99.90
5796;DHT22;2924;51.458;7.046;2024-02-04T08:16:23;9.50;99.90
5796;DHT22;2924;51.458;7.046;2024-02-04T08:18:49;9.40;99.90
5796;DHT22;2924;51.458;7.046;2024-02-04T08:21:14;9.50;99.90
5796;DHT22;2924;51.458;7.046;2024-02-04T08:23:40;9.40;99.90
5796;DHT22;2924;51.458;7.046;2024-02-04T08:26:05;9.50;99.90
5796;DHT22;2924;51.458;7.046;2024-02-04T08:28:31;9.40;99.90
5796;DHT22;2924;51.458;7.046;2024-02-04T08:30:57;9.30;99.90
5796;DHT22;2924;51.458;7.046;2024-02-04T08:33:22;9.40;99.90
5796;DHT22;2924;51.458;7.046;2024-02-04T08:35:48;9.30;99.90
5796;DHT22;2924;51.458;7.046;2024-02-04T08:38:14;9.30;99.90
5796;DHT22;2924;51.458;7.046;2024-02-04T08:40:39;9.30;99.90
5796;DHT22;2924;51.458;7.046;2024-02-04T08:43:05;9.30;99.90
5796;DHT22;2924;51.458;7.046;2024-02-04T08:45:31;9.30;99.90
5796;DHT22;2924;51.458;7.046;2024-02-04T08:47:56;9.30;99.90
5796;DHT22;2924;51.458;7.046;2024-02-04T08:50:22;9.30;99.90
5796;DHT22;2924;51.458;7.046;2024-02-04T08:52:47;9.40;99.90
5796;DHT22;2924;51.458;7.046;2024-02-04T08:55:13;9.30;99.90
5796;DHT22;2924;51.458;7.046;2024-02-04T08:57:39;9.30;99.90
5796;DHT22;2924;51.458;7.046;2024-02-04T09:00:06;9.30;99.90
5796;DHT22;2924;51.458;7.046;2024-02-04T09:02:37;9.40;99.90
5796;DHT22;2924;51.458;7.046;2024-02-04T09:05:03;9.40;99.90
5796;DHT22;2924;51.458;7.046;2024-02-04T09:07:30;9.40;99.90
5796;DHT22;2924;51.458;7.046;2024-02-04T09:09:56;9.40;99.90
5796;DHT22;2924;51.458;7.046;2024-02-04T09:12:22;9.40;99.90
5796;DHT22;2924;51.458;7.046;2024-02-04T09:14:48;9.40;99.90
5796;DHT22;2924;51.458;7.046;2024-02-04T09:17:13;9.40;99.90
5796;DHT22;2924;51.458;7.046;2024-02-04T09:19:39;9.40;99.90
5796;DHT22;2924;51.458;7.046;2024-02-04T09:22:05;9.50;99.90
5796;DHT22;2924;51.458;7.046;2024-02-04T09:24:31;9.50;99.90
5796;DHT22;2924;51.458;7.046;2024-02-04T09:26:56;9.50;99.90
5796;DHT22;2924;51.458;7.046;2024-02-04T09:29:22;9.50;99.90
5796;DHT22;2924;51.458;7.046;2024-02-04T09:31:47;9.60;99.90
5796;DHT22;2924;51.458;7.046;2024-02-04T09:34:15;9.60;99.90
5796;DHT22;2924;51.458;7.046;2024-02-04T09:36:41;9.50;99.90
5796;DHT22;2924;51.458;7.046;2024-02-04T09:39:06;9.50;99.90
5796;DHT22;2924;51.458;7.046;2024-02-04T09:41:33;9.50;99.90
5796;DHT22;2924;51.458;7.046;2024-02-04T09:43:59;9.50;99.90
5796;DHT22;2924;51.458;7.046;2024-02-04T09:46:26;9.60;99.90
5796;DHT22;2924;51.458;7.046;2024-02-04T09:48:53;9.60;99.90
5796;DHT22;2924;51.458;7.046;2024-02-04T09:51:20;9.60;99.90
5796;DHT22;2924;51.458;7.046;2024-02-04T09:53:51;9.70;99.90
5796;DHT22;2924;51.458;7.046;2024-02-04T09:56:18;9.70;99.90
5796;DHT22;2924;51.458;7.046;2024-02-04T09:58:44;9.70;99.90
5796;DHT22;2924;51.458;7.046;2024-02-04T10:01:10;9.70;99.90
5796;DHT22;2924;51.458;7.046;2024-02-04T10:03:37;9.70;99.90
5796;DHT22;2924;51.458;7.046;2024-02-04T10:06:03;9.70;99.90
5796;DHT22;2924;51.458;7.046;2024-02-04T10:08:28;9.80;99.90
5796;DHT22;2924;51.458;7.046;2024-02-04T10:10:54;9.90;99.90
5796;DHT22;2924;51.458;7.046;2024-02-04T10:13:20;9.90;99.90
5796;DHT22;2924;51.458;7.046;2024-02-04T10:15:50;9.90;99.90
5796;DHT22;2924;51.458;7.046;2024-02-04T10:18:17;9.90;99.90
5796;DHT22;2924;51.458;7.046;2024-02-04T10:20:43;9.90;99.90
5796;DHT22;2924;51.458;7.046;2024-02-04T10:23:09;9.90;99.90
5796;DHT22;2924;51.458;7.046;2024-02-04T10:25:34;9.90;99.90
5796;DHT22;2924;51.458;7.046;2024-02-04T10:28:00;9.90;99.90
5796;DHT22;2924;51.458;7.046;2024-02-04T10:30:26;10.00;99.90
5796;DHT22;2924;51.458;7.046;2024-02-04T10:32:52;10.00;99.90
5796;DHT22;2924;51.458;7.046;2024-02-04T10:35:20;10.10;99.90
5796;DHT22;2924;51.458;7.046;2024-02-04T10:37:49;10.20;99.90
5796;DHT22;2924;51.458;7.046;2024-02-04T10:40:14;10.20;99.90
5796;DHT22;2924;51.458;7.046;2024-02-04T10:42:42;10.10;99.90
5796;DHT22;2924;51.458;7.046;2024-02-04T10:45:09;10.10;99.90
5796;DHT22;2924;51.458;7.046;2024-02-04T10:47:38;10.10;99.90
5796;DHT22;2924;51.458;7.046;2024-02-04T10:50:04;10.10;99.90
5796;DHT22;2924;51.458;7.046;2024-02-04T10:52:38;10.20;99.90
5796;DHT22;2924;51.458;7.046;2024-02-04T10:55:08;10.30;99.90
5796;DHT22;2924;51.458;7.046;2024-02-04T10:57:38;10.30;99.90
5796;DHT22;2924;51.458;7.046;2024-02-04T11:00:05;10.40;99.90
5796;DHT22;2924;51.458;7.046;2024-02-04T11:02:38;10.60;99.90
5796;DHT22;2924;51.458;7.046;2024-02-04T11:05:05;10.80;99.90
5796;DHT22;2924;51.458;7.046;2024-02-04T11:07:34;11.00;99.90
5796;DHT22;2924;51.458;7.046;2024-02-04T11:10:01;11.10;99.90
5796;DHT22;2924;51.458;7.046;2024-02-04T11:12:31;11.10;99.90
5796;DHT22;2924;51.458;7.046;2024-02-04T11:15:01;11.10;99.90
5796;DHT22;2924;51.458;7.046;2024-02-04T11:18:09;10.80;99.90
5796;DHT22;2924;51.458;7.046;2024-02-04T11:26:18;10.50;99.90
5796;DHT22;2924;51.458;7.046;2024-02-04T11:28:44;10.40;99.90
5796;DHT22;2924;51.458;7.046;2024-02-04T11:31:17;10.40;99.90
5796;DHT22;2924;51.458;7.046;2024-02-04T11:33:43;10.40;99.90
5796;DHT22;2924;51.458;7.046;2024-02-04T11:36:16;10.30;99.90
5796;DHT22;2924;51.458;7.046;2024-02-04T11:38:47;10.30;99.90
5796;DHT22;2924;51.458;7.046;2024-02-04T11:41:22;10.30;99.90
5796;DHT22;2924;51.458;7.046;2024-02-04T11:43:57;10.30;99.90
5796;DHT22;2924;51.458;7.046;2024-02-04T11:46:29;10.30;99.90
5796;DHT22;2924;51.458;7.046;2024-02-04T11:48:55;10.30;99.90
5796;DHT22;2924;51.458;7.046;2024-02-04T11:51:24;10.20;99.90
5796;DHT22;2924;51.458;7.046;2024-02-04T11:53:53;10.20;99.90
5796;DHT22;2924;51.458;7.046;2024-02-04T11:56:18;10.20;99.90
5796;DHT22;2924;51.458;7.046;2024-02-04T11:58:45;10.20;99.90
5796;DHT22;2924;51.458;7.046;2024-02-04T12:01:11;10.20;99.90
5796;DHT22;2924;51.458;7.046;2024-02-04T12:03:36;10.20;99.90
5796;DHT22;2924;51.458;7.046;2024-02-04T12:06:03;10.20;99.90
5796;DHT22;2924;51.458;7.046;2024-02-04T12:08:31;10.20;99.90
5796;DHT22;2924;51.458;7.046;2024-02-04T12:10:58;10.20;99.90
5796;DHT22;2924;51.458;7.046;2024-02-04T12:13:24;10.20;99.90
5796;DHT22;2924;51.458;7.046;2024-02-04T12:15:50;10.20;99.90
5796;DHT22;2924;51.458;7.046;2024-02-04T12:18:16;10.20;99.90
5796;DHT22;2924;51.458;7.046;2024-02-04T12:20:46;10.20;99.90
5796;DHT22;2924;51.458;7.046;2024-02-04T12:23:13;10.20;99.90
5796;DHT22;2924;51.458;7.046;2024-02-04T12:25:39;10.20;99.90
5796;DHT22;2924;51.458;7.046;2024-02-04T12:28:04;10.20;99.90
5796;DHT22;2924;51.458;7.046;2024-02-04T12:30:31;10.20;99.90
5796;DHT22;2924;51.458;7.046;2024-02-04T12:32:58;10.20;99.90
5796;DHT22;2924;51.458;7.046;2024-02-04T12:35:24;10.20;99.90
5796;DHT22;2924;51.458;7.046;2024-02-04T12:37:54;10.20;99.90
5796;DHT22;2924;51.458;7.046;2024-02-04T12:40:24;10.20;99.90
5796;DHT22;2924;51.458;7.046;2024-02-04T12:42:58;10.30;99.90
5796;DHT22;2924;51.458;7.046;2024-02-04T12:45:25;10.30;99.90
5796;DHT22;2924;51.458;7.046;2024-02-04T12:47:52;10.30;99.90
5796;DHT22;2924;51.458;7.046;2024-02-04T12:50:18;10.30;99.90
5796;DHT22;2924;51.458;7.046;2024-02-04T12:53:07;10.30;99.90
5796;DHT22;2924;51.458;7.046;2024-02-04T12:55:35;10.30;99.90
5796;DHT22;2924;51.458;7.046;2024-02-04T12:58:09;10.30;99.90
5796;DHT22;2924;51.458;7.046;2024-02-04T13:00:38;10.20;99.90
5796;DHT22;2924;51.458;7.046;2024-02-04T13:03:06;10.20;99.90
5796;DHT22;2924;51.458;7.046;2024-02-04T13:05:33;10.30;99.90
5796;DHT22;2924;51.458;7.046;2024-02-04T13:08:01;10.30;99.90
5796;DHT22;2924;51.458;7.046;2024-02-04T13:10:28;10.20;99.90
5796;DHT22;2924;51.458;7.046;2024-02-04T13:13:00;10.20;99.90
5796;DHT22;2924;51.458;7.046;2024-02-04T13:15:30;10.30;99.90
5796;DHT22;2924;51.458;7.046;2024-02-04T13:17:56;10.20;99.90
5796;DHT22;2924;51.458;7.046;2024-02-04T13:20:22;10.20;99.90
5796;DHT22;2924;51.458;7.046;2024-02-04T13:22:48;10.20;99.90
5796;DHT22;2924;51.458;7.046;2024-02-04T13:25:14;10.20;99.90
5796;DHT22;2924;51.458;7.046;2024-02-04T13:27:40;10.20;99.90
5796;DHT22;2924;51.458;7.046;2024-02-04T13:30:07;10.30;99.90
5796;DHT22;2924;51.458;7.046;2024-02-04T13:32:41;10.20;99.90
5796;DHT22;2924;51.458;7.046;2024-02-04T13:35:07;10.20;99.90
5796;DHT22;2924;51.458;7.046;2024-02-04T13:37:38;10.20;99.90
5796;DHT22;2924;51.458;7.046;2024-02-04T13:40:04;10.20;99.90
5796;DHT22;2924;51.458;7.046;2024-02-04T13:42:32;10.20;99.90
5796;DHT22;2924;51.458;7.046;2024-02-04T13:44:58;10.20;99.90
5796;DHT22;2924;51.458;7.046;2024-02-04T13:47:24;10.20;99.90
5796;DHT22;2924;51.458;7.046;2024-02-04T13:49:50;10.10;99.90
5796;DHT22;2924;51.458;7.046;2024-02-04T13:52:16;10.20;99.90
5796;DHT22;2924;51.458;7.046;2024-02-04T13:54:41;10.20;99.90
5796;DHT22;2924;51.458;7.046;2024-02-04T13:57:07;10.20;99.90
5796;DHT22;2924;51.458;7.046;2024-02-04T13:59:33;10.10;99.90
5796;DHT22;2924;51.458;7.046;2024-02-04T14:01:58;10.10;99.90
5796;DHT22;2924;51.458;7.046;2024-02-04T14:04:24;10.20;99.90
5796;DHT22;2924;51.458;7.046;2024-02-04T14:06:49;10.10;99.90
5796;DHT22;2924;51.458;7.046;2024-02-04T14:09:15;10.20;99.90
5796;DHT22;2924;51.458;7.046;2024-02-04T14:11:41;10.10;99.90
5796;DHT22;2924;51.458;7.046;2024-02-04T14:14:07;10.10;99.90
5796;DHT22;2924;51.458;7.046;2024-02-04T14:16:33;10.10;99.90
5796;DHT22;2924;51.458;7.046;2024-02-04T14:18:58;10.10;99.90
5796;DHT22;2924;51.458;7.046;2024-02-04T14:21:24;10.10;99.90
5796;DHT22;2924;51.458;7.046;2024-02-04T14:23:50;10.20;99.90
5796;DHT22;2924;51.458;7.046;2024-02-04T14:26:19;10.10;99.90
5796;DHT22;2924;51.458;7.046;2024-02-04T14:28:45;10.10;99.90
5796;DHT22;2924;51.458;7.046;2024-02-04T14:31:10;10.10;99.90
5796;DHT22;2924;51.458;7.046;2024-02-04T14:33:36;10.10;99.90
5796;DHT22;2924;51.458;7.046;2024-02-04T14:36:02;10.00;99.90
5796;DHT22;2924;51.458;7.046;2024-02-04T14:38:27;10.00;99.90
5796;DHT22;2924;51.458;7.046;2024-02-04T14:40:53;10.00;99.90
5796;DHT22;2924;51.458;7.046;2024-02-04T14:43:19;10.00;99.90
5796;DHT22;2924;51.458;7.046;2024-02-04T14:45:47;10.00;99.90
5796;DHT22;2924;51.458;7.046;2024-02-04T14:48:12;10.00;99.90
5796;DHT22;2924;51.458;7.046;2024-02-04T14:50:38;10.00;99.90
5796;DHT22;2924;51.458;7.046;2024-02-04T14:53:04;9.90;99.90
5796;DHT22;2924;51.458;7.046;2024-02-04T14:55:29;9.90;99.90
5796;DHT22;2924;51.458;7.046;2024-02-04T14:57:55;10.00;99.90
5796;DHT22;2924;51.458;7.046;2024-02-04T15:00:20;10.00;99.90
5796;DHT22;2924;51.458;7.046;2024-02-04T15:02:50;10.00;99.90
5796;DHT22;2924;51.458;7.046;2024-02-04T15:05:16;10.00;99.90
5796;DHT22;2924;51.458;7.046;2024-02-04T15:07:42;10.10;99.90
5796;DHT22;2924;51.458;7.046;2024-02-04T15:10:11;10.00;99.90
5796;DHT22;2924;51.458;7.046;2024-02-04T15:12:39;10.00;99.90
5796;DHT22;2924;51.458;7.046;2024-02-04T15:15:06;10.00;99.90
5796;DHT22;2924;51.458;7.046;2024-02-04T15:17:33;10.00;99.90
5796;DHT22;2924;51.458;7.046;2024-02-04T15:19:59;10.00;99.90
5796;DHT22;2924;51.458;7.046;2024-02-04T15:22:25;10.00;99.90
5796;DHT22;2924;51.458;7.046;2024-02-04T15:24:51;9.90;99.90
5796;DHT22;2924;51.458;7.046;2024-02-04T15:27:18;10.00;99.90
5796;DHT22;2924;51.458;7.046;2024-02-04T15:29:47;9.90;99.90
5796;DHT22;2924;51.458;7.046;2024-02-04T15:32:14;10.00;99.90
5796;DHT22;2924;51.458;7.046;2024-02-04T15:34:43;10.00;99.90
5796;DHT22;2924;51.458;7.046;2024-02-04T15:37:09;10.00;99.90
5796;DHT22;2924;51.458;7.046;2024-02-04T15:39:35;9.90;99.90
5796;DHT22;2924;51.458;7.046;2024-02-04T15:42:03;10.00;99.90
5796;DHT22;2924;51.458;7.046;2024-02-04T15:44:29;9.90;99.90
5796;DHT22;2924;51.458;7.046;2024-02-04T15:46:56;9.90;99.90
5796;DHT22;2924;51.458;7.046;2024-02-04T15:49:23;9.90;99.90
5796;DHT22;2924;51.458;7.046;2024-02-04T15:51:50;9.90;99.90
5796;DHT22;2924;51.458;7.046;2024-02-04T15:54:15;9.90;99.90
5796;DHT22;2924;51.458;7.046;2024-02-04T15:56:42;9.90;99.90
5796;DHT22;2924;51.458;7.046;2024-02-04T15:59:12;9.90;99.90
5796;DHT22;2924;51.458;7.046;2024-02-04T16:01:39;9.90;99.90
5796;DHT22;2924;51.458;7.046;2024-02-04T16:04:08;9.90;99.90
5796;DHT22;2924;51.458;7.046;2024-02-04T16:06:34;9.80;99.90
5796;DHT22;2924;51.458;7.046;2024-02-04T16:09:01;9.90;99.90
5796;DHT22;2924;51.458;7.046;2024-02-04T16:11:31;9.80;99.90
5796;DHT22;2924;51.458;7.046;2024-02-04T16:14:02;9.80;99.90